createdAt,value
2023-02-08T00:00:18.695Z,-3.80
2023-02-08T00:02:47.786Z,-4.29
2023-02-08T00:05:20.160Z,-4.66
2023-02-08T00:10:31.768Z,-3.95
2023-02-08T00:13:00.112Z,-3.86
2023-02-08T00:15:30.158Z,-4.10
2023-02-08T00:17:58.333Z,-4.00
2023-02-08T00:20:27.617Z,-3.63
2023-02-08T00:22:58.880Z,-3.37
2023-02-08T00:25:37.488Z,-3.28
2023-02-08T00:28:09.668Z,-3.30
2023-02-08T00:30:37.820Z,-3.63
2023-02-08T00:33:08.128Z,-4.11
2023-02-08T00:35:36.615Z,-4.19
2023-02-08T00:38:08.259Z,-4.26
2023-02-08T00:40:36.431Z,-4.47
2023-02-08T00:43:11.884Z,-4.31
2023-02-08T00:45:45.168Z,-4.40
2023-02-08T00:48:15.414Z,-4.93
2023-02-08T00:50:43.674Z,-4.30
2023-02-08T00:53:12.886Z,-4.06
2023-02-08T00:55:41.355Z,-4.47
2023-02-08T00:58:09.673Z,-4.55
2023-02-08T01:00:41.894Z,-4.01
2023-02-08T01:03:10.269Z,-4.36
2023-02-08T01:05:39.355Z,-4.53
2023-02-08T01:08:08.496Z,-4.70
2023-02-08T01:10:36.517Z,-4.75
2023-02-08T01:13:05.053Z,-4.80
2023-02-08T01:15:34.195Z,-5.17
2023-02-08T01:18:08.723Z,-5.25
2023-02-08T01:20:39.322Z,-5.23
2023-02-08T01:23:08.523Z,-5.35
2023-02-08T01:25:36.582Z,-5.34
2023-02-08T01:28:06.017Z,-5.11
2023-02-08T01:30:34.562Z,-4.54
2023-02-08T01:33:02.599Z,-4.91
2023-02-08T01:35:34.543Z,-5.17
2023-02-08T01:38:02.814Z,-4.87
2023-02-08T01:40:32.223Z,-4.74
2023-02-08T01:43:00.381Z,-4.94
2023-02-08T01:45:33.599Z,-4.90
2023-02-08T01:48:09.812Z,-4.78
2023-02-08T01:50:46.608Z,-5.17
2023-02-08T01:53:15.344Z,-4.76
2023-02-08T01:55:48.321Z,-4.36
2023-02-08T01:58:18.690Z,-4.67
2023-02-08T02:00:47.957Z,-4.68
2023-02-08T02:03:17.081Z,-4.60
2023-02-08T02:05:50.665Z,-5.00
2023-02-08T02:08:19.466Z,-4.98
2023-02-08T02:10:49.743Z,-4.72
2023-02-08T02:13:21.120Z,-4.45
2023-02-08T02:15:51.492Z,-4.63
2023-02-08T02:18:25.773Z,-4.89
2023-02-08T02:21:19.139Z,-4.90
2023-02-08T02:24:31.667Z,-5.29
2023-02-08T02:27:28.750Z,-5.40
2023-02-08T02:30:36.633Z,-5.55
2023-02-08T02:33:35.893Z,-5.25
2023-02-08T02:36:17.956Z,-5.05
2023-02-08T02:39:02.725Z,-4.70
2023-02-08T02:42:02.096Z,-4.52
2023-02-08T02:44:40.473Z,-4.15
2023-02-08T02:47:16.287Z,-4.16
2023-02-08T02:50:02.800Z,-4.48
2023-02-08T02:52:44.166Z,-4.55
2023-02-08T02:55:18.290Z,-4.92
2023-02-08T02:58:07.065Z,-5.07
2023-02-08T03:00:53.865Z,-4.86
2023-02-08T03:03:31.678Z,-5.23
2023-02-08T03:06:04.703Z,-5.05
2023-02-08T03:09:02.531Z,-5.24
2023-02-08T03:11:37.776Z,-5.23
2023-02-08T03:14:28.222Z,-5.48
2023-02-08T03:17:27.747Z,-5.19
2023-02-08T03:20:04.912Z,-5.18
2023-02-08T03:25:38.177Z,-5.08
2023-02-08T03:28:17.929Z,-5.18
2023-02-08T03:30:53.338Z,-4.86
2023-02-08T03:33:30.402Z,-5.09
2023-02-08T03:36:07.293Z,-5.28
2023-02-08T03:38:39.253Z,-4.87
2023-02-08T03:41:26.473Z,-4.80
2023-02-08T03:44:01.872Z,-5.24
2023-02-08T03:46:34.552Z,-5.18
2023-02-08T03:49:07.081Z,-5.27
2023-02-08T03:51:39.489Z,-5.55
2023-02-08T03:54:14.683Z,-5.49
2023-02-08T03:56:54.246Z,-5.57
2023-02-08T03:59:33.777Z,-5.53
2023-02-08T04:02:05.479Z,-5.39
2023-02-08T04:04:36.757Z,-5.39
2023-02-08T04:07:05.616Z,-5.39
2023-02-08T04:09:34.284Z,-4.98
2023-02-08T04:12:04.121Z,-5.14
2023-02-08T04:14:32.907Z,-5.08
2023-02-08T04:17:03.219Z,-4.98
2023-02-08T04:19:32.101Z,-5.38
2023-02-08T04:22:01.357Z,-5.57
2023-02-08T04:24:30.536Z,-5.60
2023-02-08T04:26:58.996Z,-5.45
2023-02-08T04:29:29.536Z,-5.56
2023-02-08T04:32:01.391Z,-4.95
2023-02-08T04:34:30.461Z,-4.82
2023-02-08T04:36:59.161Z,-4.95
2023-02-08T04:39:28.968Z,-4.57
2023-02-08T04:41:58.585Z,-4.77
2023-02-08T04:44:28.752Z,-4.95
2023-02-08T04:46:57.045Z,-5.26
2023-02-08T04:49:25.271Z,-5.27
2023-02-08T04:51:53.886Z,-5.20
2023-02-08T04:54:22.976Z,-5.35
2023-02-08T04:56:51.255Z,-5.42
2023-02-08T04:59:20.197Z,-5.06
2023-02-08T05:01:55.961Z,-5.09
2023-02-08T05:04:26.590Z,-5.24
2023-02-08T05:06:55.400Z,-5.47
2023-02-08T05:09:23.660Z,-4.88
2023-02-08T05:11:52.204Z,-5.21
2023-02-08T05:14:20.615Z,-5.25
2023-02-08T05:16:48.765Z,-5.61
2023-02-08T05:19:21.284Z,-5.22
2023-02-08T05:21:51.231Z,-5.33
2023-02-08T05:24:20.373Z,-5.63
2023-02-08T05:26:48.858Z,-5.57
2023-02-08T05:29:16.820Z,-5.45
2023-02-08T05:31:47.037Z,-5.34
2023-02-08T05:34:17.631Z,-5.32
2023-02-08T05:36:47.199Z,-5.27
2023-02-08T05:39:15.204Z,-5.45
2023-02-08T05:41:43.671Z,-5.41
2023-02-08T05:44:13.884Z,-5.68
2023-02-08T05:46:43.381Z,-5.70
2023-02-08T05:49:11.456Z,-5.23
2023-02-08T05:51:39.682Z,-5.68
2023-02-08T05:54:10.515Z,-5.75
2023-02-08T05:56:41.560Z,-5.35
2023-02-08T05:59:11.565Z,-5.58
2023-02-08T06:02:01.146Z,-5.35
2023-02-08T06:04:36.766Z,-5.08
2023-02-08T06:07:06.535Z,-5.33
2023-02-08T06:09:36.070Z,-5.39
2023-02-08T06:12:03.923Z,-5.64
2023-02-08T06:14:32.021Z,-5.79
2023-02-08T06:17:01.077Z,-5.64
2023-02-08T06:19:29.346Z,-5.80
2023-02-08T06:21:57.874Z,-5.69
2023-02-08T06:24:26.117Z,-5.71
2023-02-08T06:26:55.410Z,-5.94
2023-02-08T06:29:24.456Z,-5.97
2023-02-08T06:31:52.441Z,-5.81
2023-02-08T06:34:22.073Z,-5.62
2023-02-08T06:36:52.053Z,-5.71
2023-02-08T06:39:22.161Z,-5.77
2023-02-08T06:41:57.596Z,-5.88
2023-02-08T06:44:27.624Z,-5.97
2023-02-08T06:46:56.034Z,-5.69
2023-02-08T06:49:24.008Z,-5.71
2023-02-08T06:51:52.131Z,-6.00
2023-02-08T06:54:22.087Z,-6.07
2023-02-08T06:56:50.236Z,-6.25
2023-02-08T06:59:25.190Z,-6.28
2023-02-08T07:01:53.197Z,-5.67
2023-02-08T07:04:21.665Z,-5.56
2023-02-08T07:06:50.067Z,-5.61
2023-02-08T07:09:18.763Z,-5.48
2023-02-08T07:11:46.868Z,-5.46
2023-02-08T07:14:16.645Z,-5.29
2023-02-08T07:16:46.890Z,-5.50
2023-02-08T07:19:15.002Z,-5.58
2023-02-08T07:21:43.837Z,-5.50
2023-02-08T07:24:11.756Z,-5.73
2023-02-08T07:26:39.572Z,-5.57
2023-02-08T07:29:07.509Z,-5.67
2023-02-08T07:31:35.535Z,-5.74
2023-02-08T07:34:05.832Z,-5.63
2023-02-08T07:36:35.800Z,-5.44
2023-02-08T07:39:10.588Z,-5.44
2023-02-08T07:41:39.485Z,-5.61
2023-02-08T07:44:10.495Z,-5.34
2023-02-08T07:46:40.669Z,-4.87
2023-02-08T07:49:12.522Z,-4.81
2023-02-08T07:51:40.636Z,-4.77
2023-02-08T07:54:09.110Z,-4.94
2023-02-08T07:56:37.103Z,-4.72
2023-02-08T07:59:05.423Z,-4.55
2023-02-08T08:01:33.709Z,-4.22
2023-02-08T08:04:01.687Z,-3.75
2023-02-08T08:06:32.731Z,-3.72
2023-02-08T08:09:15.949Z,-3.44
2023-02-08T08:11:43.824Z,-3.52
2023-02-08T08:14:11.731Z,-3.48
2023-02-08T08:16:40.536Z,-3.33
2023-02-08T08:19:08.478Z,-3.37
2023-02-08T08:21:38.754Z,-3.38
2023-02-08T08:24:08.134Z,-3.20
2023-02-08T08:26:40.240Z,-3.08
2023-02-08T08:29:08.703Z,-2.89
2023-02-08T08:31:38.757Z,-2.71
2023-02-08T08:34:07.741Z,-2.59
2023-02-08T08:36:36.451Z,-2.51
2023-02-08T08:39:06.039Z,-2.51
2023-02-08T08:41:36.072Z,-2.30
2023-02-08T08:44:06.313Z,-2.21
2023-02-08T08:46:34.283Z,-2.10
2023-02-08T08:49:03.283Z,-1.81
2023-02-08T08:51:35.259Z,-1.69
2023-02-08T08:54:03.391Z,-1.60
2023-02-08T08:56:36.464Z,-1.26
2023-02-08T08:59:04.837Z,-0.53
2023-02-08T09:01:34.592Z,0.37
2023-02-08T09:04:02.765Z,0.73
2023-02-08T09:06:31.888Z,0.85
2023-02-08T09:09:00.096Z,0.96
2023-02-08T09:11:33.074Z,0.90
2023-02-08T09:14:16.454Z,0.67
2023-02-08T09:16:48.720Z,1.34
2023-02-08T09:19:18.429Z,1.75
2023-02-08T09:21:47.251Z,1.84
2023-02-08T09:24:16.059Z,1.96
2023-02-08T09:26:54.414Z,1.68
2023-02-08T09:29:25.262Z,1.98
2023-02-08T09:31:59.959Z,2.75
2023-02-08T09:34:29.389Z,2.83
2023-02-08T09:36:58.094Z,3.09
2023-02-08T09:39:29.605Z,3.41
2023-02-08T09:42:24.936Z,4.18
2023-02-08T09:45:06.273Z,4.73
2023-02-08T09:47:36.355Z,4.63
2023-02-08T09:50:14.782Z,5.09
2023-02-08T09:52:47.647Z,5.54
2023-02-08T09:55:30.185Z,5.78
2023-02-08T09:58:01.106Z,6.17
2023-02-08T10:00:36.067Z,6.27
2023-02-08T10:03:07.106Z,6.05
2023-02-08T10:05:37.539Z,5.84
2023-02-08T10:08:10.746Z,6.17
2023-02-08T10:10:46.680Z,6.28
2023-02-08T10:13:41.053Z,6.29
2023-02-08T10:16:22.068Z,6.45
2023-02-08T10:18:57.254Z,6.47
2023-02-08T10:21:41.249Z,6.00
2023-02-08T10:24:35.686Z,5.73
2023-02-08T10:27:12.201Z,6.17
2023-02-08T10:30:00.976Z,5.66
2023-02-08T10:32:59.804Z,6.02
2023-02-08T10:35:37.128Z,5.95
2023-02-08T10:38:29.715Z,6.21
2023-02-08T10:41:04.784Z,6.47
2023-02-08T10:43:41.971Z,6.92
2023-02-08T10:46:17.974Z,6.64
2023-02-08T10:49:00.030Z,7.01
2023-02-08T10:51:29.982Z,6.83
2023-02-08T10:54:00.063Z,6.50
2023-02-08T10:56:44.326Z,6.37
2023-02-08T10:59:20.321Z,6.17
2023-02-08T11:01:49.898Z,6.16
2023-02-08T11:04:20.715Z,6.80
2023-02-08T11:06:50.592Z,7.32
2023-02-08T11:09:24.475Z,7.54
2023-02-08T11:11:53.787Z,7.68
2023-02-08T11:14:35.034Z,7.49
2023-02-08T11:17:26.033Z,7.51
2023-02-08T11:19:55.726Z,7.72
2023-02-08T11:22:27.791Z,7.53
2023-02-08T11:25:01.698Z,7.47
2023-02-08T11:27:35.455Z,7.24
2023-02-08T11:30:21.020Z,7.07
2023-02-08T11:32:51.268Z,7.47
2023-02-08T11:35:24.512Z,7.56
2023-02-08T11:37:54.590Z,7.76
2023-02-08T11:40:26.884Z,8.03
2023-02-08T11:42:55.905Z,8.55
2023-02-08T11:45:26.911Z,9.06
2023-02-08T11:47:55.530Z,8.73
2023-02-08T11:50:32.725Z,9.33
2023-02-08T11:53:02.540Z,9.50
2023-02-08T11:55:33.178Z,9.04
2023-02-08T11:58:05.408Z,9.14
2023-02-08T12:00:35.434Z,9.19
2023-02-08T12:03:07.494Z,8.71
2023-02-08T12:05:47.247Z,8.48
2023-02-08T12:08:25.462Z,8.54
2023-02-08T12:11:09.480Z,8.33
2023-02-08T12:13:50.646Z,8.97
2023-02-08T12:16:42.888Z,9.36
2023-02-08T12:19:45.890Z,9.51
2023-02-08T12:22:24.970Z,9.96
2023-02-08T12:25:04.681Z,10.14
2023-02-08T12:27:44.238Z,10.45
2023-02-08T12:30:26.953Z,10.29
2023-02-08T12:33:22.110Z,10.78
2023-02-08T12:36:05.425Z,10.92
2023-02-08T12:39:26.037Z,11.15
2023-02-08T12:42:17.074Z,10.79
2023-02-08T12:45:17.743Z,12.03
2023-02-08T12:48:06.575Z,11.83
2023-02-08T12:50:43.447Z,11.42
2023-02-08T12:53:21.062Z,11.03
2023-02-08T12:55:53.135Z,11.13
2023-02-08T12:58:30.705Z,11.46
2023-02-08T13:01:07.367Z,11.20
2023-02-08T13:03:44.753Z,11.64
2023-02-08T13:06:19.479Z,11.44
2023-02-08T13:08:54.211Z,11.54
2023-02-08T13:11:29.131Z,10.95
2023-02-08T13:14:03.855Z,10.90
2023-02-08T13:16:36.847Z,10.80
2023-02-08T13:19:22.677Z,11.39
2023-02-08T13:21:52.899Z,11.57
2023-02-08T13:24:29.154Z,11.01
2023-02-08T13:26:58.717Z,10.97
2023-02-08T13:29:29.452Z,11.20
2023-02-08T13:32:01.667Z,11.52
2023-02-08T13:34:37.476Z,11.55
2023-02-08T13:37:16.657Z,11.36
2023-02-08T13:40:04.234Z,11.25
2023-02-08T13:42:42.492Z,10.24
2023-02-08T13:45:26.315Z,10.47
2023-02-08T13:48:12.563Z,10.14
2023-02-08T13:50:48.762Z,10.63
2023-02-08T13:53:53.922Z,10.71
2023-02-08T13:56:41.469Z,10.37
2023-02-08T13:59:41.347Z,10.40
2023-02-08T14:02:25.095Z,10.31
2023-02-08T14:04:54.955Z,10.49
2023-02-08T14:07:36.389Z,10.80
2023-02-08T14:10:20.076Z,11.18
2023-02-08T14:12:57.938Z,11.55
2023-02-08T14:15:38.188Z,10.83
2023-02-08T14:18:22.157Z,10.52
2023-02-08T14:21:02.809Z,10.42
2023-02-08T14:23:32.645Z,10.40
2023-02-08T14:26:09.882Z,10.38
2023-02-08T14:28:42.492Z,11.24
2023-02-08T14:31:22.249Z,10.98
2023-02-08T14:33:59.455Z,11.03
2023-02-08T14:36:34.915Z,11.06
2023-02-08T14:39:09.835Z,11.20
2023-02-08T14:41:49.837Z,10.53
2023-02-08T14:44:54.354Z,10.94
2023-02-08T14:47:58.204Z,10.63
2023-02-08T14:50:33.474Z,10.38
2023-02-08T14:53:15.754Z,9.89
2023-02-08T14:55:50.326Z,10.05
2023-02-08T14:58:28.788Z,10.38
2023-02-08T15:01:03.163Z,10.34
2023-02-08T15:03:36.272Z,10.07
2023-02-08T15:06:50.221Z,9.48
2023-02-08T15:09:26.780Z,9.83
2023-02-08T15:12:01.673Z,10.15
2023-02-08T15:14:32.512Z,10.29
2023-02-08T15:17:01.209Z,10.54
2023-02-08T15:19:35.505Z,10.54
2023-02-08T15:22:21.408Z,10.05
2023-02-08T15:24:58.000Z,8.35
2023-02-08T15:27:29.207Z,7.56
2023-02-08T15:29:57.558Z,7.19
2023-02-08T15:32:27.712Z,6.61
2023-02-08T15:34:59.863Z,6.36
2023-02-08T15:37:31.663Z,6.22
2023-02-08T15:40:01.384Z,6.08
2023-02-08T15:42:34.469Z,5.82
2023-02-08T15:45:04.536Z,5.83
2023-02-08T15:47:36.489Z,5.67
2023-02-08T15:50:09.624Z,5.61
2023-02-08T15:52:38.483Z,5.29
2023-02-08T15:55:08.604Z,5.36
2023-02-08T15:57:44.065Z,5.24
2023-02-08T16:00:20.264Z,4.90
2023-02-08T16:02:53.509Z,4.50
2023-02-08T16:05:26.289Z,4.50
2023-02-08T16:07:57.166Z,4.17
2023-02-08T16:10:33.647Z,4.13
2023-02-08T16:13:05.452Z,3.89
2023-02-08T16:15:39.645Z,3.87
2023-02-08T16:18:27.841Z,3.54
2023-02-08T16:21:00.788Z,3.43
2023-02-08T16:23:31.026Z,3.12
2023-02-08T16:26:11.091Z,2.98
2023-02-08T16:28:40.847Z,2.67
2023-02-08T16:31:09.426Z,2.41
2023-02-08T16:33:39.662Z,2.14
2023-02-08T16:36:22.486Z,2.08
2023-02-08T16:39:22.834Z,2.04
2023-02-08T16:42:15.409Z,1.90
2023-02-08T16:45:03.841Z,1.69
2023-02-08T16:47:38.005Z,1.35
2023-02-08T16:50:06.255Z,1.28
2023-02-08T16:52:35.736Z,0.97
2023-02-08T16:55:04.821Z,0.66
2023-02-08T16:57:44.009Z,0.67
2023-02-08T17:00:23.937Z,0.73
2023-02-08T17:02:52.689Z,0.53
2023-02-08T17:05:22.862Z,0.71
2023-02-08T17:07:53.210Z,0.71
2023-02-08T17:10:26.063Z,0.55
2023-02-08T17:13:07.041Z,0.33
2023-02-08T17:15:46.536Z,0.07
2023-02-08T17:18:15.135Z,0.13
2023-02-08T17:20:43.278Z,0.26
2023-02-08T17:23:15.384Z,0.63
2023-02-08T17:25:46.767Z,0.54
2023-02-08T17:28:18.313Z,0.31
2023-02-08T17:30:50.803Z,0.09
2023-02-08T17:33:23.775Z,0.18
2023-02-08T17:35:53.837Z,0.12
2023-02-08T17:38:23.135Z,0.08
2023-02-08T17:40:51.009Z,0.07
2023-02-08T17:43:19.950Z,-0.16
2023-02-08T17:45:48.101Z,0.16
2023-02-08T17:48:16.251Z,0.23
2023-02-08T17:50:51.091Z,-0.03
2023-02-08T17:53:19.726Z,-0.16
2023-02-08T17:55:48.969Z,-0.27
2023-02-08T17:58:17.621Z,-0.29
2023-02-08T18:00:50.734Z,0.34
2023-02-08T18:03:18.597Z,-0.11
2023-02-08T18:05:47.476Z,-0.42
2023-02-08T18:08:15.330Z,-0.32
2023-02-08T18:10:47.283Z,-0.33
2023-02-08T18:13:17.233Z,-0.39
2023-02-08T18:15:48.098Z,-0.43
2023-02-08T18:18:16.511Z,-0.43
2023-02-08T18:20:44.968Z,-0.70
2023-02-08T18:23:14.875Z,-0.60
2023-02-08T18:25:43.222Z,-0.06
2023-02-08T18:28:15.191Z,-0.21
2023-02-08T18:30:44.989Z,-0.18
2023-02-08T18:33:15.328Z,-0.25
2023-02-08T18:35:49.296Z,-0.43
2023-02-08T18:38:17.717Z,-0.45
2023-02-08T18:40:45.699Z,-0.56
2023-02-08T18:43:13.814Z,-0.49
2023-02-08T18:45:42.187Z,-0.75
2023-02-08T18:48:11.625Z,-0.90
2023-02-08T18:50:39.878Z,-0.66
2023-02-08T18:53:09.182Z,-0.83
2023-02-08T18:55:37.148Z,-0.97
2023-02-08T18:58:05.018Z,-1.02
2023-02-08T19:00:34.899Z,-1.21
2023-02-08T19:03:02.822Z,-1.21
2023-02-08T19:05:32.380Z,-1.16
2023-02-08T19:08:01.361Z,-0.87
2023-02-08T19:10:29.409Z,-0.82
2023-02-08T19:12:57.443Z,-0.88
2023-02-08T19:15:25.479Z,-1.02
2023-02-08T19:17:54.279Z,-1.20
2023-02-08T19:20:22.110Z,-1.39
2023-02-08T19:22:51.420Z,-1.50
2023-02-08T19:25:22.081Z,-1.50
2023-02-08T19:27:53.792Z,-1.67
2023-02-08T19:30:22.292Z,-1.96
2023-02-08T19:32:51.442Z,-2.16
2023-02-08T19:35:25.297Z,-2.16
2023-02-08T19:37:54.700Z,-1.86
2023-02-08T19:40:24.256Z,-1.85
2023-02-08T19:43:00.497Z,-1.99
2023-02-08T19:45:31.985Z,-2.07
2023-02-08T19:48:00.212Z,-2.29
2023-02-08T19:50:28.162Z,-2.24
2023-02-08T19:56:01.825Z,-2.50
2023-02-08T19:58:30.849Z,-2.42
2023-02-08T20:00:59.418Z,-2.49
2023-02-08T20:03:27.505Z,-2.57
2023-02-08T20:05:56.528Z,-2.88
2023-02-08T20:08:27.376Z,-2.90
2023-02-08T20:10:56.240Z,-2.92
2023-02-08T20:13:24.874Z,-2.94
2023-02-08T20:15:59.705Z,-2.83
2023-02-08T20:18:27.955Z,-2.73
2023-02-08T20:21:03.664Z,-2.91
2023-02-08T20:23:33.314Z,-2.94
2023-02-08T20:26:23.564Z,-2.89
2023-02-08T20:28:54.285Z,-2.64
2023-02-08T20:31:24.344Z,-2.64
2023-02-08T20:33:55.313Z,-2.64
2023-02-08T20:36:24.724Z,-2.74
2023-02-08T20:38:55.914Z,-2.61
2023-02-08T20:41:26.012Z,-2.58
2023-02-08T20:43:55.981Z,-2.94
2023-02-08T20:46:26.888Z,-3.01
2023-02-08T20:48:57.493Z,-3.24
2023-02-08T20:51:27.214Z,-3.24
2023-02-08T20:53:59.828Z,-3.25
2023-02-08T20:56:31.119Z,-3.37
2023-02-08T20:59:02.970Z,-3.39
2023-02-08T21:01:33.891Z,-3.28
2023-02-08T21:04:02.501Z,-3.27
2023-02-08T21:06:32.803Z,-3.15
2023-02-08T21:09:06.152Z,-2.97
2023-02-08T21:11:35.253Z,-3.01
2023-02-08T21:14:05.178Z,-3.05
2023-02-08T21:16:34.580Z,-2.68
2023-02-08T21:19:02.522Z,-2.66
2023-02-08T21:21:32.942Z,-2.68
2023-02-08T21:24:03.391Z,-2.57
2023-02-08T21:26:31.913Z,-2.35
2023-02-08T21:29:00.413Z,-2.47
2023-02-08T21:31:28.523Z,-2.44
2023-02-08T21:33:56.438Z,-2.60
2023-02-08T21:36:25.371Z,-2.47
2023-02-08T21:38:53.447Z,-2.58
2023-02-08T21:41:24.990Z,-2.61
2023-02-08T21:43:55.901Z,-2.60
2023-02-08T21:46:25.676Z,-2.44
2023-02-08T21:49:11.251Z,-2.44
2023-02-08T21:51:57.217Z,-2.52
2023-02-08T21:54:44.072Z,-2.46
2023-02-08T21:57:16.906Z,-2.76
2023-02-08T21:59:45.085Z,-2.63
2023-02-08T22:02:15.905Z,-2.59
2023-02-08T22:05:01.570Z,-2.71
2023-02-08T22:07:32.176Z,-2.69
2023-02-08T22:10:01.301Z,-2.86
2023-02-08T22:12:30.711Z,-2.81
2023-02-08T22:14:58.806Z,-2.69
2023-02-08T22:17:28.902Z,-2.49
2023-02-08T22:19:56.966Z,-2.52
2023-02-08T22:22:25.093Z,-2.34
2023-02-08T22:24:53.131Z,-2.68
2023-02-08T22:27:21.248Z,-2.80
2023-02-08T22:29:53.640Z,-2.97
2023-02-08T22:32:22.008Z,-3.09
2023-02-08T22:34:50.383Z,-3.02
2023-02-08T22:37:21.741Z,-3.22
2023-02-08T22:39:49.792Z,-3.05
2023-02-08T22:42:17.853Z,-3.10
2023-02-08T22:44:50.433Z,-2.83
2023-02-08T22:47:21.582Z,-2.43
2023-02-08T22:49:49.770Z,-2.33
2023-02-08T22:52:21.771Z,-1.84
2023-02-08T22:54:56.178Z,-1.54
2023-02-08T22:57:24.362Z,-1.51
2023-02-08T22:59:52.541Z,-1.27
2023-02-08T23:02:25.958Z,-1.51
2023-02-08T23:04:54.525Z,-1.52
2023-02-08T23:07:29.691Z,-1.44
2023-02-08T23:09:57.802Z,-1.39
2023-02-08T23:12:28.972Z,-1.29
2023-02-08T23:14:56.938Z,-1.05
2023-02-08T23:17:26.421Z,-1.21
2023-02-08T23:19:55.642Z,-1.30
2023-02-08T23:22:23.569Z,-1.29
2023-02-08T23:24:51.438Z,-1.09
2023-02-08T23:27:19.296Z,-1.08
2023-02-08T23:29:47.127Z,-0.95
2023-02-08T23:32:17.313Z,-1.05
2023-02-08T23:34:47.630Z,-1.09
2023-02-08T23:37:15.668Z,-1.23
2023-02-08T23:39:48.319Z,-0.99
2023-02-08T23:42:26.370Z,-0.64
2023-02-08T23:44:54.429Z,-0.85
2023-02-08T23:47:23.127Z,-0.95
2023-02-08T23:49:53.360Z,-0.55
2023-02-08T23:52:21.624Z,-0.59
2023-02-08T23:54:49.713Z,-0.77
2023-02-08T23:57:17.740Z,-0.75
2023-02-08T23:59:46.759Z,-0.57
